sensor_id;sensor_type;location;lat;lon;timestamp;P1;durP1;ratioP1;P2;durP2;ratioP2
4642;SDS011;2334;48.710;9.622;2023-10-13T00:01:20;9.50;;;5.80;;
4642;SDS011;2334;48.710;9.622;2023-10-13T00:03:47;13.00;;;7.10;;
4642;SDS011;2334;48.710;9.622;2023-10-13T00:06:14;12.50;;;6.10;;
4642;SDS011;2334;48.710;9.622;2023-10-13T00:08:43;9.07;;;5.97;;
4642;SDS011;2334;48.710;9.622;2023-10-13T00:11:13;17.40;;;6.70;;
4642;SDS011;2334;48.710;9.622;2023-10-13T00:13:42;15.70;;;6.53;;
4642;SDS011;2334;48.710;9.622;2023-10-13T00:16:15;13.20;;;6.47;;
4642;SDS011;2334;48.710;9.622;2023-10-13T00:18:46;9.30;;;6.17;;
4642;SDS011;2334;48.710;9.622;2023-10-13T00:21:14;10.27;;;5.60;;
4642;SDS011;2334;48.710;9.622;2023-10-13T00:23:45;8.53;;;5.87;;
4642;SDS011;2334;48.710;9.622;2023-10-13T00:26:18;9.13;;;5.43;;
4642;SDS011;2334;48.710;9.622;2023-10-13T00:28:51;7.90;;;5.30;;
4642;SDS011;2334;48.710;9.622;2023-10-13T00:31:24;12.27;;;5.93;;
4642;SDS011;2334;48.710;9.622;2023-10-13T00:33:57;10.90;;;6.00;;
4642;SDS011;2334;48.710;9.622;2023-10-13T00:36:31;10.50;;;6.00;;
4642;SDS011;2334;48.710;9.622;2023-10-13T00:38:59;9.90;;;5.77;;
4642;SDS011;2334;48.710;9.622;2023-10-13T00:41:26;14.73;;;6.47;;
4642;SDS011;2334;48.710;9.622;2023-10-13T00:44:17;9.80;;;5.70;;
4642;SDS011;2334;48.710;9.622;2023-10-13T00:46:51;17.00;;;5.70;;
4642;SDS011;2334;48.710;9.622;2023-10-13T00:49:21;9.93;;;5.57;;
4642;SDS011;2334;48.710;9.622;2023-10-13T00:51:50;12.77;;;6.00;;
4642;SDS011;2334;48.710;9.622;2023-10-13T00:54:16;9.27;;;6.03;;
4642;SDS011;2334;48.710;9.622;2023-10-13T00:56:51;8.13;;;5.20;;
4642;SDS011;2334;48.710;9.622;2023-10-13T00:59:31;10.63;;;5.50;;
4642;SDS011;2334;48.710;9.622;2023-10-13T01:02:06;13.63;;;5.43;;
4642;SDS011;2334;48.710;9.622;2023-10-13T01:04:47;10.23;;;5.60;;
4642;SDS011;2334;48.710;9.622;2023-10-13T01:07:15;10.67;;;5.87;;
4642;SDS011;2334;48.710;9.622;2023-10-13T01:09:41;7.53;;;4.70;;
4642;SDS011;2334;48.710;9.622;2023-10-13T01:12:08;7.53;;;5.70;;
4642;SDS011;2334;48.710;9.622;2023-10-13T01:14:35;11.30;;;6.13;;
4642;SDS011;2334;48.710;9.622;2023-10-13T01:17:03;13.57;;;6.40;;
4642;SDS011;2334;48.710;9.622;2023-10-13T01:19:29;16.03;;;6.50;;
4642;SDS011;2334;48.710;9.622;2023-10-13T01:21:55;8.87;;;5.80;;
4642;SDS011;2334;48.710;9.622;2023-10-13T01:24:28;9.43;;;5.63;;
4642;SDS011;2334;48.710;9.622;2023-10-13T01:26:59;29.53;;;6.33;;
4642;SDS011;2334;48.710;9.622;2023-10-13T01:29:32;10.90;;;5.90;;
4642;SDS011;2334;48.710;9.622;2023-10-13T01:31:59;11.17;;;6.00;;
4642;SDS011;2334;48.710;9.622;2023-10-13T01:34:25;11.80;;;5.87;;
4642;SDS011;2334;48.710;9.622;2023-10-13T01:36:52;13.70;;;6.20;;
4642;SDS011;2334;48.710;9.622;2023-10-13T01:39:19;9.60;;;5.23;;
4642;SDS011;2334;48.710;9.622;2023-10-13T01:41:53;6.17;;;5.23;;
4642;SDS011;2334;48.710;9.622;2023-10-13T01:44:20;7.90;;;5.10;;
4642;SDS011;2334;48.710;9.622;2023-10-13T01:46:47;11.70;;;4.87;;
4642;SDS011;2334;48.710;9.622;2023-10-13T01:49:13;10.40;;;5.17;;
4642;SDS011;2334;48.710;9.622;2023-10-13T01:51:41;8.70;;;4.80;;
4642;SDS011;2334;48.710;9.622;2023-10-13T01:54:07;8.73;;;5.13;;
4642;SDS011;2334;48.710;9.622;2023-10-13T01:56:37;7.57;;;5.87;;
4642;SDS011;2334;48.710;9.622;2023-10-13T01:59:09;7.77;;;5.27;;
4642;SDS011;2334;48.710;9.622;2023-10-13T02:01:36;9.80;;;5.80;;
4642;SDS011;2334;48.710;9.622;2023-10-13T02:04:03;7.10;;;5.00;;
4642;SDS011;2334;48.710;9.622;2023-10-13T02:06:31;9.27;;;5.77;;
4642;SDS011;2334;48.710;9.622;2023-10-13T02:08:59;11.53;;;5.10;;
4642;SDS011;2334;48.710;9.622;2023-10-13T02:11:35;10.17;;;6.07;;
4642;SDS011;2334;48.710;9.622;2023-10-13T02:14:02;14.40;;;7.20;;
4642;SDS011;2334;48.710;9.622;2023-10-13T02:16:31;12.87;;;5.97;;
4642;SDS011;2334;48.710;9.622;2023-10-13T02:18:56;13.33;;;6.40;;
4642;SDS011;2334;48.710;9.622;2023-10-13T02:21:29;7.73;;;5.13;;
4642;SDS011;2334;48.710;9.622;2023-10-13T02:23:57;13.50;;;5.17;;
4642;SDS011;2334;48.710;9.622;2023-10-13T02:26:29;7.93;;;5.60;;
4642;SDS011;2334;48.710;9.622;2023-10-13T02:28:55;12.47;;;5.80;;
4642;SDS011;2334;48.710;9.622;2023-10-13T02:31:23;8.10;;;5.27;;
4642;SDS011;2334;48.710;9.622;2023-10-13T02:33:53;7.83;;;4.83;;
4642;SDS011;2334;48.710;9.622;2023-10-13T02:36:20;9.37;;;5.27;;
4642;SDS011;2334;48.710;9.622;2023-10-13T02:38:53;10.37;;;4.90;;
4642;SDS011;2334;48.710;9.622;2023-10-13T02:41:23;8.13;;;5.27;;
4642;SDS011;2334;48.710;9.622;2023-10-13T02:43:51;11.37;;;5.50;;
4642;SDS011;2334;48.710;9.622;2023-10-13T02:46:18;10.03;;;5.70;;
4642;SDS011;2334;48.710;9.622;2023-10-13T02:48:46;8.87;;;5.70;;
4642;SDS011;2334;48.710;9.622;2023-10-13T02:51:19;27.83;;;15.37;;
4642;SDS011;2334;48.710;9.622;2023-10-13T02:53:50;20.80;;;11.40;;
4642;SDS011;2334;48.710;9.622;2023-10-13T02:56:18;20.03;;;8.53;;
4642;SDS011;2334;48.710;9.622;2023-10-13T02:58:46;17.17;;;9.73;;
4642;SDS011;2334;48.710;9.622;2023-10-13T03:01:18;17.30;;;8.83;;
4642;SDS011;2334;48.710;9.622;2023-10-13T03:03:45;15.10;;;7.70;;
4642;SDS011;2334;48.710;9.622;2023-10-13T03:06:16;19.20;;;9.17;;
4642;SDS011;2334;48.710;9.622;2023-10-13T03:08:45;14.07;;;8.33;;
4642;SDS011;2334;48.710;9.622;2023-10-13T03:11:12;21.47;;;10.30;;
4642;SDS011;2334;48.710;9.622;2023-10-13T03:13:39;21.30;;;9.80;;
4642;SDS011;2334;48.710;9.622;2023-10-13T03:16:13;20.47;;;10.47;;
4642;SDS011;2334;48.710;9.622;2023-10-13T03:18:41;19.57;;;10.13;;
4642;SDS011;2334;48.710;9.622;2023-10-13T03:21:16;15.03;;;6.80;;
4642;SDS011;2334;48.710;9.622;2023-10-13T03:23:54;11.20;;;6.63;;
4642;SDS011;2334;48.710;9.622;2023-10-13T03:26:29;7.40;;;5.47;;
4642;SDS011;2334;48.710;9.622;2023-10-13T03:28:59;11.30;;;6.13;;
4642;SDS011;2334;48.710;9.622;2023-10-13T03:31:28;9.97;;;5.63;;
4642;SDS011;2334;48.710;9.622;2023-10-13T03:33:55;7.20;;;4.97;;
4642;SDS011;2334;48.710;9.622;2023-10-13T03:36:24;11.13;;;6.17;;
4642;SDS011;2334;48.710;9.622;2023-10-13T03:39:22;8.03;;;5.10;;
4642;SDS011;2334;48.710;9.622;2023-10-13T03:41:53;7.20;;;4.57;;
4642;SDS011;2334;48.710;9.622;2023-10-13T03:44:21;9.47;;;4.97;;
4642;SDS011;2334;48.710;9.622;2023-10-13T03:46:48;8.30;;;5.30;;
4642;SDS011;2334;48.710;9.622;2023-10-13T03:49:19;9.63;;;5.20;;
4642;SDS011;2334;48.710;9.622;2023-10-13T03:51:47;12.30;;;5.43;;
4642;SDS011;2334;48.710;9.622;2023-10-13T03:54:14;11.93;;;5.63;;
4642;SDS011;2334;48.710;9.622;2023-10-13T03:56:44;16.93;;;6.27;;
4642;SDS011;2334;48.710;9.622;2023-10-13T03:59:11;7.50;;;5.93;;
4642;SDS011;2334;48.710;9.622;2023-10-13T04:01:44;9.43;;;5.27;;
4642;SDS011;2334;48.710;9.622;2023-10-13T04:04:23;6.80;;;3.97;;
4642;SDS011;2334;48.710;9.622;2023-10-13T04:06:59;8.63;;;5.20;;
4642;SDS011;2334;48.710;9.622;2023-10-13T04:09:59;6.97;;;4.47;;
4642;SDS011;2334;48.710;9.622;2023-10-13T04:12:57;10.37;;;4.97;;
4642;SDS011;2334;48.710;9.622;2023-10-13T04:15:42;8.50;;;5.03;;
4642;SDS011;2334;48.710;9.622;2023-10-13T04:18:27;11.80;;;5.27;;
4642;SDS011;2334;48.710;9.622;2023-10-13T04:21:15;8.70;;;5.30;;
4642;SDS011;2334;48.710;9.622;2023-10-13T04:24:05;11.57;;;5.60;;
4642;SDS011;2334;48.710;9.622;2023-10-13T04:26:47;8.70;;;5.80;;
4642;SDS011;2334;48.710;9.622;2023-10-13T04:29:44;11.70;;;5.50;;
4642;SDS011;2334;48.710;9.622;2023-10-13T04:32:13;14.33;;;4.73;;
4642;SDS011;2334;48.710;9.622;2023-10-13T04:34:53;9.40;;;5.00;;
4642;SDS011;2334;48.710;9.622;2023-10-13T04:37:33;10.10;;;5.60;;
4642;SDS011;2334;48.710;9.622;2023-10-13T04:40:17;10.10;;;4.67;;
4642;SDS011;2334;48.710;9.622;2023-10-13T04:42:50;9.27;;;5.00;;
4642;SDS011;2334;48.710;9.622;2023-10-13T04:45:20;11.47;;;5.20;;
4642;SDS011;2334;48.710;9.622;2023-10-13T04:48:04;13.97;;;5.00;;
4642;SDS011;2334;48.710;9.622;2023-10-13T04:50:58;6.83;;;4.87;;
4642;SDS011;2334;48.710;9.622;2023-10-13T04:53:39;10.63;;;5.27;;
4642;SDS011;2334;48.710;9.622;2023-10-13T04:56:20;9.33;;;5.30;;
4642;SDS011;2334;48.710;9.622;2023-10-13T04:59:05;8.50;;;5.23;;
4642;SDS011;2334;48.710;9.622;2023-10-13T05:02:02;6.13;;;4.50;;
4642;SDS011;2334;48.710;9.622;2023-10-13T05:04:43;9.20;;;5.30;;
4642;SDS011;2334;48.710;9.622;2023-10-13T05:07:27;14.43;;;5.77;;
4642;SDS011;2334;48.710;9.622;2023-10-13T05:10:11;7.70;;;5.33;;
4642;SDS011;2334;48.710;9.622;2023-10-13T05:12:55;7.73;;;4.83;;
4642;SDS011;2334;48.710;9.622;2023-10-13T05:15:43;6.90;;;4.40;;
4642;SDS011;2334;48.710;9.622;2023-10-13T05:18:29;7.27;;;4.90;;
4642;SDS011;2334;48.710;9.622;2023-10-13T05:21:13;7.80;;;4.50;;
4642;SDS011;2334;48.710;9.622;2023-10-13T05:23:58;6.43;;;4.00;;
4642;SDS011;2334;48.710;9.622;2023-10-13T05:26:42;6.43;;;4.93;;
4642;SDS011;2334;48.710;9.622;2023-10-13T05:29:26;10.20;;;4.63;;
4642;SDS011;2334;48.710;9.622;2023-10-13T05:32:10;12.33;;;4.60;;
4642;SDS011;2334;48.710;9.622;2023-10-13T05:34:54;7.77;;;4.40;;
4642;SDS011;2334;48.710;9.622;2023-10-13T05:37:38;9.47;;;6.10;;
4642;SDS011;2334;48.710;9.622;2023-10-13T05:40:38;9.60;;;4.53;;
4642;SDS011;2334;48.710;9.622;2023-10-13T05:43:21;6.23;;;4.43;;
4642;SDS011;2334;48.710;9.622;2023-10-13T05:46:06;13.40;;;5.57;;
4642;SDS011;2334;48.710;9.622;2023-10-13T05:48:49;9.80;;;5.73;;
4642;SDS011;2334;48.710;9.622;2023-10-13T05:51:46;10.43;;;5.40;;
4642;SDS011;2334;48.710;9.622;2023-10-13T05:54:22;9.00;;;5.10;;
4642;SDS011;2334;48.710;9.622;2023-10-13T05:57:07;6.93;;;4.80;;
4642;SDS011;2334;48.710;9.622;2023-10-13T06:00:00;9.90;;;5.27;;
4642;SDS011;2334;48.710;9.622;2023-10-13T06:02:44;12.03;;;5.67;;
4642;SDS011;2334;48.710;9.622;2023-10-13T06:05:29;8.97;;;5.27;;
4642;SDS011;2334;48.710;9.622;2023-10-13T06:08:15;9.00;;;5.10;;
4642;SDS011;2334;48.710;9.622;2023-10-13T06:11:02;13.10;;;5.50;;
4642;SDS011;2334;48.710;9.622;2023-10-13T06:13:47;12.30;;;4.77;;
4642;SDS011;2334;48.710;9.622;2023-10-13T06:16:31;6.77;;;5.17;;
4642;SDS011;2334;48.710;9.622;2023-10-13T06:19:16;10.13;;;5.33;;
4642;SDS011;2334;48.710;9.622;2023-10-13T06:22:01;9.00;;;4.50;;
4642;SDS011;2334;48.710;9.622;2023-10-13T06:24:47;12.33;;;5.07;;
4642;SDS011;2334;48.710;9.622;2023-10-13T06:27:31;9.40;;;5.40;;
4642;SDS011;2334;48.710;9.622;2023-10-13T06:30:15;7.70;;;4.57;;
4642;SDS011;2334;48.710;9.622;2023-10-13T06:32:43;10.30;;;5.10;;
4642;SDS011;2334;48.710;9.622;2023-10-13T06:35:34;6.77;;;4.10;;
4642;SDS011;2334;48.710;9.622;2023-10-13T06:38:04;8.23;;;4.93;;
4642;SDS011;2334;48.710;9.622;2023-10-13T06:40:36;10.70;;;6.30;;
4642;SDS011;2334;48.710;9.622;2023-10-13T06:43:07;7.63;;;5.50;;
4642;SDS011;2334;48.710;9.622;2023-10-13T06:45:42;9.73;;;5.07;;
4642;SDS011;2334;48.710;9.622;2023-10-13T06:48:09;10.37;;;4.77;;
4642;SDS011;2334;48.710;9.622;2023-10-13T06:50:39;14.50;;;5.47;;
4642;SDS011;2334;48.710;9.622;2023-10-13T06:53:06;6.00;;;4.87;;
4642;SDS011;2334;48.710;9.622;2023-10-13T06:55:38;6.10;;;4.37;;
4642;SDS011;2334;48.710;9.622;2023-10-13T06:58:05;10.90;;;5.43;;
4642;SDS011;2334;48.710;9.622;2023-10-13T07:00:38;15.13;;;6.30;;
4642;SDS011;2334;48.710;9.622;2023-10-13T07:03:06;10.50;;;5.37;;
4642;SDS011;2334;48.710;9.622;2023-10-13T07:05:35;7.10;;;4.60;;
4642;SDS011;2334;48.710;9.622;2023-10-13T07:08:04;6.93;;;5.30;;
4642;SDS011;2334;48.710;9.622;2023-10-13T07:10:36;9.57;;;5.37;;
4642;SDS011;2334;48.710;9.622;2023-10-13T07:13:27;15.23;;;6.10;;
4642;SDS011;2334;48.710;9.622;2023-10-13T07:15:54;13.97;;;5.30;;
4642;SDS011;2334;48.710;9.622;2023-10-13T07:18:26;13.40;;;5.77;;
4642;SDS011;2334;48.710;9.622;2023-10-13T07:21:00;9.83;;;5.67;;
4642;SDS011;2334;48.710;9.622;2023-10-13T07:23:34;9.17;;;5.60;;
4642;SDS011;2334;48.710;9.622;2023-10-13T07:26:03;13.63;;;5.23;;
4642;SDS011;2334;48.710;9.622;2023-10-13T07:28:33;9.53;;;5.70;;
4642;SDS011;2334;48.710;9.622;2023-10-13T07:31:07;8.80;;;5.40;;
4642;SDS011;2334;48.710;9.622;2023-10-13T07:33:41;10.67;;;6.20;;
4642;SDS011;2334;48.710;9.622;2023-10-13T07:36:08;14.63;;;6.67;;
4642;SDS011;2334;48.710;9.622;2023-10-13T07:38:42;15.37;;;7.33;;
4642;SDS011;2334;48.710;9.622;2023-10-13T07:41:14;17.13;;;6.30;;
4642;SDS011;2334;48.710;9.622;2023-10-13T07:43:42;10.73;;;5.70;;
4642;SDS011;2334;48.710;9.622;2023-10-13T07:46:10;24.13;;;7.63;;
4642;SDS011;2334;48.710;9.622;2023-10-13T07:48:38;19.17;;;7.40;;
4642;SDS011;2334;48.710;9.622;2023-10-13T07:51:06;10.50;;;6.27;;
4642;SDS011;2334;48.710;9.622;2023-10-13T07:53:36;10.00;;;5.70;;
4642;SDS011;2334;48.710;9.622;2023-10-13T07:56:05;11.10;;;6.93;;
4642;SDS011;2334;48.710;9.622;2023-10-13T07:58:35;14.40;;;6.37;;
4642;SDS011;2334;48.710;9.622;2023-10-13T08:01:12;16.17;;;6.33;;
4642;SDS011;2334;48.710;9.622;2023-10-13T08:03:43;8.87;;;5.23;;
4642;SDS011;2334;48.710;9.622;2023-10-13T08:06:11;15.23;;;6.90;;
4642;SDS011;2334;48.710;9.622;2023-10-13T08:08:53;28.43;;;6.70;;
4642;SDS011;2334;48.710;9.622;2023-10-13T08:11:32;9.87;;;5.23;;
4642;SDS011;2334;48.710;9.622;2023-10-13T08:14:02;18.23;;;6.00;;
4642;SDS011;2334;48.710;9.622;2023-10-13T08:16:37;11.63;;;5.70;;
4642;SDS011;2334;48.710;9.622;2023-10-13T08:19:20;15.60;;;4.50;;
4642;SDS011;2334;48.710;9.622;2023-10-13T08:21:52;10.23;;;5.20;;
4642;SDS011;2334;48.710;9.622;2023-10-13T08:24:22;19.13;;;6.70;;
4642;SDS011;2334;48.710;9.622;2023-10-13T08:26:54;9.77;;;5.10;;
4642;SDS011;2334;48.710;9.622;2023-10-13T08:29:50;10.93;;;4.80;;
4642;SDS011;2334;48.710;9.622;2023-10-13T08:32:47;11.20;;;5.47;;
4642;SDS011;2334;48.710;9.622;2023-10-13T08:35:25;8.20;;;4.30;;
4642;SDS011;2334;48.710;9.622;2023-10-13T08:38:03;11.20;;;4.93;;
4642;SDS011;2334;48.710;9.622;2023-10-13T08:40:44;10.93;;;5.47;;
4642;SDS011;2334;48.710;9.622;2023-10-13T08:43:33;10.03;;;4.27;;
4642;SDS011;2334;48.710;9.622;2023-10-13T08:46:10;11.00;;;4.80;;
4642;SDS011;2334;48.710;9.622;2023-10-13T08:48:55;14.53;;;6.83;;
4642;SDS011;2334;48.710;9.622;2023-10-13T08:51:32;13.43;;;3.70;;
4642;SDS011;2334;48.710;9.622;2023-10-13T08:54:14;4.73;;;3.50;;
4642;SDS011;2334;48.710;9.622;2023-10-13T08:57:01;13.50;;;4.57;;
4642;SDS011;2334;48.710;9.622;2023-10-13T08:59:45;8.70;;;4.33;;
4642;SDS011;2334;48.710;9.622;2023-10-13T09:02:19;7.43;;;4.27;;
4642;SDS011;2334;48.710;9.622;2023-10-13T09:05:08;10.80;;;4.90;;
4642;SDS011;2334;48.710;9.622;2023-10-13T09:07:55;13.57;;;4.30;;
4642;SDS011;2334;48.710;9.622;2023-10-13T09:10:33;14.53;;;5.07;;
4642;SDS011;2334;48.710;9.622;2023-10-13T09:12:59;6.57;;;3.17;;
4642;SDS011;2334;48.710;9.622;2023-10-13T09:15:36;14.87;;;4.50;;
4642;SDS011;2334;48.710;9.622;2023-10-13T09:18:25;7.73;;;4.03;;
4642;SDS011;2334;48.710;9.622;2023-10-13T09:21:11;7.70;;;3.97;;
4642;SDS011;2334;48.710;9.622;2023-10-13T09:24:11;12.53;;;4.50;;
4642;SDS011;2334;48.710;9.622;2023-10-13T09:26:52;15.07;;;5.20;;
4642;SDS011;2334;48.710;9.622;2023-10-13T09:29:21;10.80;;;4.10;;
4642;SDS011;2334;48.710;9.622;2023-10-13T09:31:57;9.27;;;4.00;;
4642;SDS011;2334;48.710;9.622;2023-10-13T09:34:27;13.93;;;5.10;;
4642;SDS011;2334;48.710;9.622;2023-10-13T09:36:58;8.30;;;3.83;;
4642;SDS011;2334;48.710;9.622;2023-10-13T09:39:28;4.90;;;2.63;;
4642;SDS011;2334;48.710;9.622;2023-10-13T09:42:06;10.03;;;3.90;;
4642;SDS011;2334;48.710;9.622;2023-10-13T09:44:35;8.87;;;4.47;;
4642;SDS011;2334;48.710;9.622;2023-10-13T09:47:07;7.40;;;3.63;;
4642;SDS011;2334;48.710;9.622;2023-10-13T09:49:56;14.17;;;4.57;;
4642;SDS011;2334;48.710;9.622;2023-10-13T09:52:30;16.63;;;4.33;;
4642;SDS011;2334;48.710;9.622;2023-10-13T09:55:06;8.70;;;3.77;;
4642;SDS011;2334;48.710;9.622;2023-10-13T09:57:41;15.27;;;4.10;;
4642;SDS011;2334;48.710;9.622;2023-10-13T10:00:11;11.53;;;3.07;;
4642;SDS011;2334;48.710;9.622;2023-10-13T10:03:09;13.10;;;3.57;;
4642;SDS011;2334;48.710;9.622;2023-10-13T10:05:58;10.80;;;3.20;;
4642;SDS011;2334;48.710;9.622;2023-10-13T10:08:38;9.50;;;3.00;;
4642;SDS011;2334;48.710;9.622;2023-10-13T10:11:23;7.03;;;3.20;;
4642;SDS011;2334;48.710;9.622;2023-10-13T10:14:13;13.50;;;3.17;;
4642;SDS011;2334;48.710;9.622;2023-10-13T10:16:45;6.07;;;3.67;;
4642;SDS011;2334;48.710;9.622;2023-10-13T10:19:20;6.63;;;2.27;;
4642;SDS011;2334;48.710;9.622;2023-10-13T10:21:49;9.10;;;3.20;;
4642;SDS011;2334;48.710;9.622;2023-10-13T10:24:29;3.60;;;2.53;;
4642;SDS011;2334;48.710;9.622;2023-10-13T10:26:58;4.90;;;2.70;;
4642;SDS011;2334;48.710;9.622;2023-10-13T10:29:28;4.70;;;2.90;;
4642;SDS011;2334;48.710;9.622;2023-10-13T10:31:57;10.07;;;2.90;;
4642;SDS011;2334;48.710;9.622;2023-10-13T10:34:29;12.97;;;2.77;;
4642;SDS011;2334;48.710;9.622;2023-10-13T10:36:59;5.50;;;3.10;;
4642;SDS011;2334;48.710;9.622;2023-10-13T10:39:34;6.80;;;2.67;;
4642;SDS011;2334;48.710;9.622;2023-10-13T10:42:10;8.73;;;3.33;;
4642;SDS011;2334;48.710;9.622;2023-10-13T10:44:51;20.23;;;3.40;;
4642;SDS011;2334;48.710;9.622;2023-10-13T10:47:23;10.80;;;2.93;;
4642;SDS011;2334;48.710;9.622;2023-10-13T10:49:58;15.37;;;3.10;;
4642;SDS011;2334;48.710;9.622;2023-10-13T10:52:27;4.73;;;2.60;;
4642;SDS011;2334;48.710;9.622;2023-10-13T10:55:02;12.77;;;3.07;;
4642;SDS011;2334;48.710;9.622;2023-10-13T10:57:32;5.20;;;2.20;;
4642;SDS011;2334;48.710;9.622;2023-10-13T11:00:02;4.03;;;2.70;;
4642;SDS011;2334;48.710;9.622;2023-10-13T11:02:36;9.13;;;2.97;;
4642;SDS011;2334;48.710;9.622;2023-10-13T11:05:04;4.50;;;2.37;;
4642;SDS011;2334;48.710;9.622;2023-10-13T11:07:36;8.53;;;2.37;;
4642;SDS011;2334;48.710;9.622;2023-10-13T11:10:09;7.97;;;2.77;;
4642;SDS011;2334;48.710;9.622;2023-10-13T11:12:53;6.93;;;2.97;;
4642;SDS011;2334;48.710;9.622;2023-10-13T11:15:21;14.33;;;3.07;;
4642;SDS011;2334;48.710;9.622;2023-10-13T11:17:49;6.90;;;2.87;;
4642;SDS011;2334;48.710;9.622;2023-10-13T11:20:20;6.33;;;2.60;;
4642;SDS011;2334;48.710;9.622;2023-10-13T11:22:59;8.53;;;3.13;;
4642;SDS011;2334;48.710;9.622;2023-10-13T11:25:30;5.10;;;3.30;;
4642;SDS011;2334;48.710;9.622;2023-10-13T11:28:09;5.60;;;2.13;;
4642;SDS011;2334;48.710;9.622;2023-10-13T11:30:42;13.50;;;3.00;;
4642;SDS011;2334;48.710;9.622;2023-10-13T11:33:14;4.37;;;2.67;;
4642;SDS011;2334;48.710;9.622;2023-10-13T11:35:44;2.43;;;2.23;;
4642;SDS011;2334;48.710;9.622;2023-10-13T11:38:25;11.57;;;2.80;;
4642;SDS011;2334;48.710;9.622;2023-10-13T11:40:53;13.80;;;3.77;;
4642;SDS011;2334;48.710;9.622;2023-10-13T11:43:37;3.33;;;2.17;;
4642;SDS011;2334;48.710;9.622;2023-10-13T11:46:23;6.67;;;2.60;;
4642;SDS011;2334;48.710;9.622;2023-10-13T11:49:09;7.77;;;2.17;;
4642;SDS011;2334;48.710;9.622;2023-10-13T11:51:43;8.17;;;2.80;;
4642;SDS011;2334;48.710;9.622;2023-10-13T11:54:12;5.70;;;3.17;;
4642;SDS011;2334;48.710;9.622;2023-10-13T11:56:40;9.30;;;2.53;;
4642;SDS011;2334;48.710;9.622;2023-10-13T11:59:07;5.43;;;2.60;;
4642;SDS011;2334;48.710;9.622;2023-10-13T12:01:41;13.67;;;2.97;;
4642;SDS011;2334;48.710;9.622;2023-10-13T12:04:26;6.43;;;2.10;;
4642;SDS011;2334;48.710;9.622;2023-10-13T12:07:05;13.63;;;2.90;;
4642;SDS011;2334;48.710;9.622;2023-10-13T12:09:46;5.43;;;2.10;;
4642;SDS011;2334;48.710;9.622;2023-10-13T12:12:31;9.67;;;4.30;;
4642;SDS011;2334;48.710;9.622;2023-10-13T12:15:05;5.10;;;2.30;;
4642;SDS011;2334;48.710;9.622;2023-10-13T12:17:39;5.87;;;2.30;;
4642;SDS011;2334;48.710;9.622;2023-10-13T12:20:10;6.20;;;2.20;;
4642;SDS011;2334;48.710;9.622;2023-10-13T12:22:43;10.67;;;3.33;;
4642;SDS011;2334;48.710;9.622;2023-10-13T12:25:21;3.90;;;2.30;;
4642;SDS011;2334;48.710;9.622;2023-10-13T12:28:09;6.23;;;2.17;;
4642;SDS011;2334;48.710;9.622;2023-10-13T12:30:43;8.40;;;2.27;;
4642;SDS011;2334;48.710;9.622;2023-10-13T12:33:16;7.63;;;2.30;;
4642;SDS011;2334;48.710;9.622;2023-10-13T12:35:50;4.60;;;2.57;;
4642;SDS011;2334;48.710;9.622;2023-10-13T12:38:40;5.63;;;2.23;;
4642;SDS011;2334;48.710;9.622;2023-10-13T12:41:31;5.73;;;2.60;;
4642;SDS011;2334;48.710;9.622;2023-10-13T12:44:16;5.97;;;2.30;;
4642;SDS011;2334;48.710;9.622;2023-10-13T12:47:00;8.53;;;3.47;;
4642;SDS011;2334;48.710;9.622;2023-10-13T12:49:44;10.50;;;3.67;;
4642;SDS011;2334;48.710;9.622;2023-10-13T12:52:33;5.77;;;3.60;;
4642;SDS011;2334;48.710;9.622;2023-10-13T12:55:01;8.40;;;3.73;;
4642;SDS011;2334;48.710;9.622;2023-10-13T12:57:40;7.73;;;2.60;;
4642;SDS011;2334;48.710;9.622;2023-10-13T13:00:12;3.80;;;2.33;;
4642;SDS011;2334;48.710;9.622;2023-10-13T13:02:58;2.67;;;1.87;;
4642;SDS011;2334;48.710;9.622;2023-10-13T13:05:36;11.20;;;2.77;;
4642;SDS011;2334;48.710;9.622;2023-10-13T13:08:09;4.80;;;2.77;;
4642;SDS011;2334;48.710;9.622;2023-10-13T13:10:42;3.67;;;2.30;;
4642;SDS011;2334;48.710;9.622;2023-10-13T13:13:14;4.13;;;2.20;;
4642;SDS011;2334;48.710;9.622;2023-10-13T13:15:49;5.90;;;2.50;;
4642;SDS011;2334;48.710;9.622;2023-10-13T13:18:17;14.17;;;2.23;;
4642;SDS011;2334;48.710;9.622;2023-10-13T13:20:44;9.27;;;2.33;;
4642;SDS011;2334;48.710;9.622;2023-10-13T13:23:18;3.57;;;2.63;;
4642;SDS011;2334;48.710;9.622;2023-10-13T13:25:45;10.53;;;3.53;;
4642;SDS011;2334;48.710;9.622;2023-10-13T13:28:12;5.77;;;2.40;;
4642;SDS011;2334;48.710;9.622;2023-10-13T13:30:41;4.90;;;3.37;;
4642;SDS011;2334;48.710;9.622;2023-10-13T13:33:08;5.90;;;2.60;;
4642;SDS011;2334;48.710;9.622;2023-10-13T13:35:39;4.60;;;2.60;;
4642;SDS011;2334;48.710;9.622;2023-10-13T13:38:07;6.40;;;2.50;;
4642;SDS011;2334;48.710;9.622;2023-10-13T13:40:41;9.07;;;2.03;;
4642;SDS011;2334;48.710;9.622;2023-10-13T13:43:13;8.23;;;2.40;;
4642;SDS011;2334;48.710;9.622;2023-10-13T13:45:57;5.43;;;2.67;;
4642;SDS011;2334;48.710;9.622;2023-10-13T13:48:26;6.87;;;2.20;;
4642;SDS011;2334;48.710;9.622;2023-10-13T13:50:53;13.50;;;2.30;;
4642;SDS011;2334;48.710;9.622;2023-10-13T13:53:21;5.93;;;2.40;;
4642;SDS011;2334;48.710;9.622;2023-10-13T13:55:53;9.47;;;2.70;;
4642;SDS011;2334;48.710;9.622;2023-10-13T13:58:20;6.87;;;2.43;;
4642;SDS011;2334;48.710;9.622;2023-10-13T14:00:47;8.77;;;3.30;;
4642;SDS011;2334;48.710;9.622;2023-10-13T14:03:15;3.73;;;2.60;;
4642;SDS011;2334;48.710;9.622;2023-10-13T14:05:56;8.57;;;2.63;;
4642;SDS011;2334;48.710;9.622;2023-10-13T14:08:24;5.93;;;3.00;;
4642;SDS011;2334;48.710;9.622;2023-10-13T14:10:52;7.10;;;2.60;;
4642;SDS011;2334;48.710;9.622;2023-10-13T14:13:36;14.40;;;2.90;;
4642;SDS011;2334;48.710;9.622;2023-10-13T14:16:14;6.23;;;2.90;;
4642;SDS011;2334;48.710;9.622;2023-10-13T14:18:47;6.53;;;2.27;;
4642;SDS011;2334;48.710;9.622;2023-10-13T14:21:15;6.13;;;3.23;;
4642;SDS011;2334;48.710;9.622;2023-10-13T14:23:44;4.87;;;2.67;;
4642;SDS011;2334;48.710;9.622;2023-10-13T14:26:14;4.67;;;2.30;;
4642;SDS011;2334;48.710;9.622;2023-10-13T14:28:45;4.20;;;2.43;;
4642;SDS011;2334;48.710;9.622;2023-10-13T14:31:17;9.47;;;2.70;;
4642;SDS011;2334;48.710;9.622;2023-10-13T14:33:46;4.90;;;2.30;;
4642;SDS011;2334;48.710;9.622;2023-10-13T14:36:13;6.67;;;2.83;;
4642;SDS011;2334;48.710;9.622;2023-10-13T14:38:45;5.83;;;2.50;;
4642;SDS011;2334;48.710;9.622;2023-10-13T14:41:14;19.23;;;2.50;;
4642;SDS011;2334;48.710;9.622;2023-10-13T14:43:43;5.73;;;2.20;;
4642;SDS011;2334;48.710;9.622;2023-10-13T14:46:13;3.33;;;2.67;;
4642;SDS011;2334;48.710;9.622;2023-10-13T14:48:40;4.63;;;2.63;;
4642;SDS011;2334;48.710;9.622;2023-10-13T14:51:10;6.20;;;3.30;;
4642;SDS011;2334;48.710;9.622;2023-10-13T14:53:39;4.50;;;2.30;;
4642;SDS011;2334;48.710;9.622;2023-10-13T14:56:09;4.10;;;2.70;;
4642;SDS011;2334;48.710;9.622;2023-10-13T14:58:37;10.07;;;3.17;;
4642;SDS011;2334;48.710;9.622;2023-10-13T15:01:10;9.93;;;2.70;;
4642;SDS011;2334;48.710;9.622;2023-10-13T15:03:40;10.63;;;2.07;;
4642;SDS011;2334;48.710;9.622;2023-10-13T15:06:07;4.33;;;2.63;;
4642;SDS011;2334;48.710;9.622;2023-10-13T15:08:42;10.63;;;2.93;;
4642;SDS011;2334;48.710;9.622;2023-10-13T15:11:11;11.23;;;3.20;;
4642;SDS011;2334;48.710;9.622;2023-10-13T15:13:38;8.90;;;2.43;;
4642;SDS011;2334;48.710;9.622;2023-10-13T15:16:12;3.10;;;1.90;;
4642;SDS011;2334;48.710;9.622;2023-10-13T15:18:42;8.17;;;2.23;;
4642;SDS011;2334;48.710;9.622;2023-10-13T15:21:10;5.77;;;2.10;;
4642;SDS011;2334;48.710;9.622;2023-10-13T15:23:38;6.27;;;1.97;;
4642;SDS011;2334;48.710;9.622;2023-10-13T15:26:08;7.97;;;2.30;;
4642;SDS011;2334;48.710;9.622;2023-10-13T15:28:37;5.17;;;2.67;;
4642;SDS011;2334;48.710;9.622;2023-10-13T15:31:13;8.17;;;3.40;;
4642;SDS011;2334;48.710;9.622;2023-10-13T15:33:51;3.60;;;2.90;;
4642;SDS011;2334;48.710;9.622;2023-10-13T15:36:21;5.03;;;2.50;;
4642;SDS011;2334;48.710;9.622;2023-10-13T15:38:49;6.87;;;3.00;;
4642;SDS011;2334;48.710;9.622;2023-10-13T15:41:26;11.10;;;3.30;;
4642;SDS011;2334;48.710;9.622;2023-10-13T15:43:55;5.33;;;2.30;;
4642;SDS011;2334;48.710;9.622;2023-10-13T15:46:22;7.17;;;3.03;;
4642;SDS011;2334;48.710;9.622;2023-10-13T15:48:49;3.10;;;2.17;;
4642;SDS011;2334;48.710;9.622;2023-10-13T15:51:17;4.00;;;2.50;;
4642;SDS011;2334;48.710;9.622;2023-10-13T15:53:46;5.20;;;2.07;;
4642;SDS011;2334;48.710;9.622;2023-10-13T15:56:13;4.83;;;2.57;;